Архив погоды в Котельниково

Метеограмма Котельниково
Среда, 19 Июня
Время местн. Темп Ветер Видим Явления Облачность нижн/средн/верх Атм. давл. Влжн Точка росы ВНГО R Сост. почвы Tg s
Напр Скр Прв ур.ст ур.м изм
15:00 +32.2° С-З 5 - 10 км - ясно 754 758 -0.8 22% +8° более 2.5 км - - - -
12:00 +31.8° С 3 - 10 км - ясно 755 759 -0.2 20% +6.2° более 2.5 км - - - -
09:00 +29.6° С 3 - 10 км - ясно 755 759 +0.1 25% +7.4° более 2.5 км - - - -
06:00 +20.7° С,С-З 1 - 10 км - ясно 755 759 0 66% +14.1° более 2.5 км - Сухая (без трещин) - -
03:00 +16.9° штиль 0 - 10 км - ясно 755 759 +0.1 71% +11.7° более 2.5 км - - - -
00:00 +20° штиль 0 - 10 км - ясно 755 759 +0.1 54% +10.5° более 2.5 км - - - -
Вторник, 18 Июня
Время местн. Темп Ветер Видим Явления Облачность нижн/средн/верх Атм. давл. Влжн Точка росы ВНГО R Сост. почвы Tg s
Напр Скр Прв ур.ст ур.м изм
21:00 +24.7° С 2 - 10 км - ясно 755 759 +0.6 42% +11° более 2.5 км - - - -
18:00 +29.9° С,С-З 5 - 10 км - ясно 754 759 -0.4 22% +6° более 2.5 км - - - -
15:00 +30.9° С,С-З 6 10 10 км - переменная облачность 755 759 -0.7 24% +8° - - - - -
12:00 +31.2° С 4 - 10 км - переменная облачность 756 760 -0.5 22% +7° - - - - -
09:00 +28.3° С-В 4 - 10 км - ясно 756 760 -0.2 24% +5.6° более 2.5 км - - - -
06:00 +19.6° С 1 - 10 км - ясно 756 760 +0.4 56% +10.6° более 2.5 км - Сухая (без трещин) - -
03:00 +17.4° С 2 - 10 км - ясно 756 760 -0.2 65% +10.8° более 2.5 км - - - -
00:00 +20.1° С,С-В 1 - 10 км - ясно 756 760 +0.3 47% +8.4° более 2.5 км - - - -
Понедельник, 17 Июня
Время местн. Темп Ветер Видим Явления Облачность нижн/средн/верх Атм. давл. Влжн Точка росы ВНГО R Сост. почвы Tg s
Напр Скр Прв ур.ст ур.м изм
21:00 +23.4° С 2 - 10 км - ясно 756 760 +0.8 36% +7.5° более 2.5 км - - - -
18:00 +28.5° С 4 10 10 км - ясно 755 759 -0.1 27% +7.7° более 2.5 км 0 - - -
15:00 +29° С 4 10 10 км - переменная облачность 755 759 -0.4 30% +9.7° 1 км - - - -
12:00 +17.5° С-В 5 - 10 км - переменная облачность 755 759 +0.2 69% +11.8° 1 км - - - -
09:00 +23.9° С-В 4 - 10 км - ясно 755 759 +1 54% +14° более 2.5 км - - - -
06:00 +19.1° С 2 - 10 км облака рассеиваются {гроза, ливневые осадки} переменная облачность 754 759 +0.5 80% +15.6° 1 км - Влажная (без луж) - -
03:00 +19.3° С 1 - 10 км - облачно 754 758 -0.4 72% +14.2° 1 км - - - -
00:00 +18.8° С,С-В 6 - 10 км - переменная облачность 754 758 +1.5 77% +14.6° 1 км - - - -
Воскресенье, 16 Июня
Время местн. Темп Ветер Видим Явления Облачность нижн/средн/верх Атм. давл. Влжн Точка росы ВНГО R Сост. почвы Tg s
Напр Скр Прв ур.ст ур.м изм
21:00 +24.7° В,С-В 4 - 10 км - облачно с прояснениями 753 757 +0.6 49% +13.3° 1 км - - - -
18:00 +32.1° С-З 3 - 10 км - переменная облачность 752 756 -0.6 26% +10° 1 км - - - -
15:00 +31.7° С 4 - 10 км - переменная облачность 753 757 -1.1 25% +9.3° 1 км - - - -
12:00 +32.4° С,С-З 3 - 10 км - переменная облачность 754 758 -0.4 25% +9.8° 1 км - - - -